^^
Datos históricos de la estación: Murcia-Puente Tocinos
Diario Informe para Mayo 4, 2019 Unidades:  Métrico    Inglés   Ambas
Diario Semanal Mensual Anual Configurable
  Máximo: Mínimo: Media:
Temperatura: 24.4 °C 12.9 °C 17.7 °C
Punto de rocio: 13.1 °C 1.8 °C 9.8 °C
Humedad: 87% 25% 63%
Velocidad viento: 20.9km/h 0.0km/h 7.7km/h
Racha viento: 37.0km/h - -
Viento- - SSW
Presión: 1012.4 hPa 1009.3 hPa -
Precipitación: 0.0 mm    
Historical Graphs
 
 
Tabla de datos para Mayo 4, 2019
Hora Temperatura Punto de rocio Presión Viento Velocidad viento Racha viento Humedad Intensidad lluvia(por hora) Nubes
00:00 15.2 °C 11.4 °C 1011.6 hPa NE 8.0 km/h 11.3 km/h 78% 0.0 mm CLR
00:05 15.1 °C 11.3 °C 1011.7 hPa ENE 8.4 km/h 11.1 km/h 78% 0.0 mm CLR
00:10 15.1 °C 11.3 °C 1011.7 hPa NNE 5.8 km/h 9.5 km/h 78% 0.0 mm CLR
00:15 15.1 °C 11.3 °C 1011.7 hPa ENE 5.8 km/h 5.8 km/h 78% 0.0 mm CLR
00:20 15.0 °C 11.2 °C 1011.4 hPa NE 5.8 km/h 9.3 km/h 78% 0.0 mm CLR
00:25 15.0 °C 11.2 °C 1011.4 hPa ENE 5.8 km/h 7.4 km/h 78% 0.0 mm CLR
00:30 15.0 °C 11.0 °C 1011.4 hPa NE 5.0 km/h 10.0 km/h 77% 0.0 mm CLR
00:35 14.9 °C 11.1 °C 1011.8 hPa NNE 5.0 km/h 9.3 km/h 78% 0.0 mm CLR
00:40 14.9 °C 11.1 °C 1011.8 hPa NNE 6.9 km/h 7.4 km/h 78% 0.0 mm CLR
00:45 14.9 °C 11.3 °C 1011.8 hPa NNE 6.9 km/h 6.9 km/h 79% 0.0 mm CLR
00:50 14.8 °C 11.0 °C 1011.7 hPa ENE 2.9 km/h 5.6 km/h 78% 0.0 mm CLR
00:55 14.8 °C 11.0 °C 1011.7 hPa ENE 2.9 km/h 5.6 km/h 78% 0.0 mm CLR
01:00 14.7 °C 10.9 °C 1011.7 hPa ENE 1.6 km/h 4.8 km/h 78% 0.0 mm CLR
01:05 14.7 °C 10.9 °C 1011.7 hPa ENE 2.3 km/h 5.0 km/h 78% 0.0 mm CLR
01:10 14.7 °C 10.9 °C 1011.7 hPa Calm   1.9 km/h 78% 0.0 mm CLR
01:15 14.7 °C 10.7 °C 1011.7 hPa Calm   1.9 km/h 77% 0.0 mm CLR
01:20 14.7 °C 10.9 °C 1011.7 hPa Calm   3.7 km/h 78% 0.0 mm CLR
01:25 14.7 °C 10.9 °C 1011.7 hPa Calm   3.7 km/h 78% 0.0 mm CLR
01:30 14.7 °C 10.9 °C 1011.7 hPa Calm     78% 0.0 mm CLR
01:35 14.7 °C 10.9 °C 1011.6 hPa Calm     78% 0.0 mm CLR
01:40 14.7 °C 10.9 °C 1011.6 hPa Calm     78% 0.0 mm CLR
01:45 14.6 °C 10.8 °C 1011.6 hPa Calm   3.9 km/h 78% 0.0 mm CLR
01:50 14.5 °C 10.9 °C 1011.5 hPa ENE 2.3 km/h 3.7 km/h 79% 0.0 mm CLR
01:55 14.5 °C 10.9 °C 1011.5 hPa ENE 2.3 km/h   79% 0.0 mm CLR
02:00 14.4 °C 10.8 °C 1011.5 hPa Calm   6.4 km/h 79% 0.0 mm CLR
02:05 14.4 °C 10.8 °C 1011.4 hPa Calm   1.9 km/h 79% 0.0 mm CLR
02:10 14.4 °C 10.8 °C 1011.4 hPa Calm     79% 0.0 mm CLR
02:15 14.4 °C 10.8 °C 1011.4 hPa Calm     79% 0.0 mm CLR
02:20 14.3 °C 10.7 °C 1011.3 hPa Calm     79% 0.0 mm CLR
02:25 14.3 °C 10.7 °C 1011.3 hPa Calm     79% 0.0 mm CLR
02:30 14.3 °C 10.7 °C 1011.3 hPa Calm   5.6 km/h 79% 0.0 mm CLR
02:35 14.2 °C 10.6 °C 1011.3 hPa Calm   4.7 km/h 79% 0.0 mm CLR
02:40 14.2 °C 10.6 °C 1011.3 hPa West 3.2 km/h 3.7 km/h 79% 0.0 mm CLR
02:45 14.2 °C 10.6 °C 1011.3 hPa West 3.2 km/h 5.6 km/h 79% 0.0 mm CLR
02:50 14.2 °C 10.6 °C 1011.1 hPa West 2.3 km/h 3.9 km/h 79% 0.0 mm CLR
02:55 14.3 °C 10.7 °C 1011.1 hPa West 2.3 km/h 3.7 km/h 79% 0.0 mm CLR
03:00 14.3 °C 10.7 °C 1011.1 hPa West 1.6 km/h 1.6 km/h 79% 0.0 mm CLR
03:05 14.3 °C 10.7 °C 1010.9 hPa West 2.3 km/h   79% 0.0 mm CLR
03:10 14.4 °C 10.8 °C 1010.9 hPa Calm   3.7 km/h 79% 0.0 mm CLR
03:15 14.4 °C 10.8 °C 1010.9 hPa Calm   9.3 km/h 79% 0.0 mm CLR
03:20 14.3 °C 10.9 °C 1010.8 hPa SSW 5.0 km/h 11.1 km/h 80% 0.0 mm CLR
03:25 14.3 °C 10.9 °C 1010.8 hPa SSW 5.0 km/h 11.1 km/h 80% 0.0 mm CLR
03:30 14.3 °C 11.1 °C 1010.8 hPa SSW 6.4 km/h 9.3 km/h 81% 0.0 mm CLR
03:35 14.2 °C 11.0 °C 1010.7 hPa South 6.4 km/h 7.4 km/h 81% 0.0 mm CLR
03:40 14.2 °C 11.2 °C 1010.7 hPa South 6.9 km/h 11.1 km/h 82% 0.0 mm CLR
03:45 14.2 °C 11.2 °C 1010.7 hPa SSW 6.9 km/h 11.1 km/h 82% 0.0 mm CLR
03:50 14.1 °C 11.3 °C 1010.6 hPa SSW 7.6 km/h 9.3 km/h 83% 0.0 mm CLR
03:55 14.1 °C 11.3 °C 1010.6 hPa SSW 7.6 km/h 11.1 km/h 83% 0.0 mm CLR
04:00 14.1 °C 11.2 °C 1010.6 hPa SSW 8.0 km/h 12.9 km/h 83% 0.0 mm CLR
04:05 14.0 °C 11.2 °C 1010.7 hPa South 7.6 km/h 9.3 km/h 83% 0.0 mm CLR
04:10 13.9 °C 11.1 °C 1010.7 hPa SSW 7.6 km/h 7.6 km/h 83% 0.0 mm CLR
04:15 13.9 °C 11.1 °C 1010.7 hPa SSW 7.6 km/h 11.1 km/h 83% 0.0 mm CLR
04:20 13.9 °C 11.2 °C 1010.6 hPa WSW 6.4 km/h 9.5 km/h 84% 0.0 mm CLR
04:25 13.9 °C 11.2 °C 1010.6 hPa WSW 6.4 km/h 5.6 km/h 84% 0.0 mm CLR
04:30 13.9 °C 11.2 °C 1010.6 hPa SW 4.7 km/h 11.1 km/h 84% 0.0 mm CLR
04:35 13.8 °C 11.2 °C 1010.7 hPa SW 4.7 km/h 9.3 km/h 84% 0.0 mm CLR
04:40 13.8 °C 11.2 °C 1010.7 hPa SW 6.4 km/h 9.3 km/h 84% 0.0 mm CLR
04:45 13.8 °C 11.2 °C 1010.7 hPa WSW 6.4 km/h 5.8 km/h 84% 0.0 mm CLR
04:50 13.8 °C 11.2 °C 1010.8 hPa West 5.8 km/h 9.3 km/h 84% 0.0 mm CLR
04:55 13.8 °C 11.2 °C 1010.8 hPa WSW 5.8 km/h 5.6 km/h 84% 0.0 mm CLR
05:00 13.8 °C 11.2 °C 1010.8 hPa WSW 3.2 km/h 8.0 km/h 84% 0.0 mm CLR
05:05 13.8 °C 11.2 °C 1010.7 hPa SW 3.9 km/h 5.6 km/h 84% 0.0 mm CLR
05:10 13.8 °C 11.2 °C 1010.7 hPa SW 4.7 km/h 9.3 km/h 84% 0.0 mm CLR
05:15 13.8 °C 11.2 °C 1010.7 hPa SW 4.7 km/h 5.6 km/h 84% 0.0 mm CLR
05:20 13.8 °C 11.2 °C 1010.8 hPa SW 5.0 km/h 9.3 km/h 84% 0.0 mm CLR
05:25 13.7 °C 10.9 °C 1010.8 hPa SSW 5.0 km/h 9.3 km/h 83% 0.0 mm CLR
05:30 13.7 °C 10.9 °C 1010.8 hPa SSW 6.4 km/h 7.6 km/h 83% 0.0 mm CLR
05:35 13.7 °C 11.1 °C 1010.7 hPa SSW 6.4 km/h 11.1 km/h 84% 0.0 mm CLR
05:40 13.7 °C 11.1 °C 1010.7 hPa SSW 5.8 km/h 9.3 km/h 84% 0.0 mm CLR
05:45 13.7 °C 11.1 °C 1010.7 hPa SSW 5.8 km/h 9.3 km/h 84% 0.0 mm CLR
05:50 13.6 °C 10.8 °C 1010.7 hPa SSW 5.8 km/h 9.3 km/h 83% 0.0 mm CLR
05:55 13.6 °C 10.8 °C 1010.7 hPa SSW 5.8 km/h 7.4 km/h 83% 0.0 mm CLR
06:00 13.6 °C 10.8 °C 1010.7 hPa SW 4.8 km/h 9.7 km/h 83% 0.0 mm CLR
06:05 13.6 °C 10.8 °C 1010.7 hPa SSW 5.0 km/h 9.3 km/h 83% 0.0 mm CLR
06:10 13.6 °C 10.8 °C 1010.7 hPa WSW 5.0 km/h 7.6 km/h 83% 0.0 mm CLR
06:15 13.6 °C 10.8 °C 1010.7 hPa WSW 5.0 km/h 7.4 km/h 83% 0.0 mm CLR
06:20 13.6 °C 10.8 °C 1010.7 hPa SW 4.7 km/h 9.3 km/h 83% 0.0 mm CLR
06:25 13.5 °C 10.7 °C 1010.7 hPa WSW 4.7 km/h 9.3 km/h 83% 0.0 mm CLR
06:30 13.5 °C 10.8 °C 1010.7 hPa WNW 5.0 km/h 7.4 km/h 84% 0.0 mm CLR
06:35 13.4 °C 10.8 °C 1010.9 hPa West 5.0 km/h 7.4 km/h 84% 0.0 mm CLR
06:40 13.4 °C 10.8 °C 1010.9 hPa West 4.7 km/h 7.4 km/h 84% 0.0 mm CLR
06:45 13.3 °C 10.7 °C 1010.9 hPa West 4.7 km/h 3.7 km/h 84% 0.0 mm CLR
06:50 13.2 °C 10.7 °C 1010.9 hPa West 2.9 km/h 5.6 km/h 85% 0.0 mm CLR
06:55 13.2 °C 10.7 °C 1010.9 hPa West 2.9 km/h 3.7 km/h 85% 0.0 mm CLR
07:00 13.1 °C 10.6 °C 1010.9 hPa West 3.2 km/h 8.0 km/h 85% 0.0 mm CLR
07:05 13.1 °C 10.8 °C 1011.1 hPa West 3.2 km/h 6.4 km/h 86% 0.0 mm CLR
07:10 13.1 °C 10.8 °C 1011.1 hPa West 3.9 km/h 5.6 km/h 86% 0.0 mm CLR
07:15 13.0 °C 10.7 °C 1011.1 hPa West 3.9 km/h 7.4 km/h 86% 0.0 mm CLR
07:20 12.9 °C 10.8 °C 1011.1 hPa West 3.9 km/h 3.7 km/h 87% 0.0 mm CLR
07:25 12.9 °C 10.8 °C 1011.1 hPa West 3.9 km/h 5.6 km/h 87% 0.0 mm CLR
07:30 12.9 °C 10.8 °C 1011.1 hPa WSW 3.2 km/h 7.4 km/h 87% 0.0 mm CLR
07:35 13.0 °C 10.9 °C 1011.4 hPa WSW 3.2 km/h 3.7 km/h 87% 0.0 mm CLR
07:40 13.1 °C 11.0 °C 1011.4 hPa WSW 2.9 km/h   87% 0.0 mm CLR
07:45 13.1 °C 11.0 °C 1011.4 hPa WSW 2.9 km/h   87% 0.0 mm CLR
07:50 13.2 °C 10.9 °C 1011.5 hPa Calm   5.6 km/h 86% 0.0 mm CLR
07:55 13.3 °C 11.0 °C 1011.5 hPa Calm   1.9 km/h 86% 0.0 mm CLR
08:00 13.4 °C 11.1 °C 1011.5 hPa WSW 1.6 km/h 8.0 km/h 86% 0.0 mm CLR
08:05 13.5 °C 11.0 °C 1011.7 hPa WSW 2.3 km/h 5.0 km/h 85% 0.0 mm CLR
08:10 13.6 °C 11.1 °C 1011.7 hPa WSW 2.9 km/h 5.6 km/h 85% 0.0 mm CLR
08:15 13.7 °C 11.1 °C 1011.7 hPa WSW 2.9 km/h 3.7 km/h 84% 0.0 mm CLR
08:20 13.9 °C 11.2 °C 1011.8 hPa WSW 3.9 km/h 5.6 km/h 84% 0.0 mm CLR
08:25 14.1 °C 11.3 °C 1011.8 hPa WSW 3.9 km/h 5.6 km/h 83% 0.0 mm CLR
08:30 14.2 °C 11.2 °C 1011.8 hPa West 3.2 km/h 7.4 km/h 82% 0.0 mm CLR
08:35 14.3 °C 11.1 °C 1011.9 hPa WSW 3.2 km/h 7.4 km/h 81% 0.0 mm CLR
08:40 14.5 °C 11.3 °C 1011.9 hPa WSW 4.7 km/h 7.4 km/h 81% 0.0 mm CLR
08:45 14.7 °C 11.3 °C 1011.9 hPa SW 4.7 km/h 5.6 km/h 80% 0.0 mm CLR
08:50 14.9 °C 11.1 °C 1012.1 hPa West 3.9 km/h 9.5 km/h 78% 0.0 mm CLR
08:55 15.1 °C 11.1 °C 1012.1 hPa WSW 3.9 km/h 13.0 km/h 77% 0.0 mm CLR
09:00 15.1 °C 11.1 °C 1012.1 hPa WSW 8.0 km/h 12.9 km/h 77% 0.0 mm CLR
09:05 15.1 °C 10.9 °C 1012.1 hPa West 6.4 km/h 7.4 km/h 76% 0.0 mm CLR
09:10 15.2 °C 10.6 °C 1012.1 hPa SW 5.8 km/h 13.0 km/h 74% 0.0 mm CLR
09:15 15.3 °C 10.3 °C 1012.1 hPa SW 5.8 km/h 11.1 km/h 72% 0.0 mm CLR
09:20 15.3 °C 10.5 °C 1012.2 hPa WNW 9.5 km/h 11.1 km/h 73% 0.0 mm CLR
09:25 15.4 °C 10.4 °C 1012.2 hPa South 9.5 km/h 16.7 km/h 72% 0.0 mm CLR
09:30 15.4 °C 10.2 °C 1012.2 hPa WSW 8.4 km/h 14.8 km/h 71% 0.0 mm CLR
09:35 15.4 °C 10.4 °C 1012.3 hPa WSW 8.4 km/h 13.0 km/h 72% 0.0 mm CLR
09:40 15.4 °C 10.2 °C 1012.3 hPa WSW 7.6 km/h 9.3 km/h 71% 0.0 mm CLR
09:45 15.6 °C 9.5 °C 1012.3 hPa WSW 7.6 km/h 13.0 km/h 67% 0.0 mm CLR
09:50 15.8 °C 9.4 °C 1012.4 hPa West 7.6 km/h 14.8 km/h 66% 0.0 mm CLR
09:55 15.8 °C 9.2 °C 1012.4 hPa West 7.6 km/h 11.1 km/h 65% 0.0 mm CLR
10:00 15.9 °C 8.8 °C 1012.4 hPa West 8.0 km/h 16.1 km/h 63% 0.0 mm CLR
10:05 16.1 °C 9.1 °C 1012.3 hPa WSW 7.6 km/h 16.1 km/h 63% 0.0 mm CLR
10:10 16.2 °C 8.4 °C 1012.3 hPa WSW 7.6 km/h 13.0 km/h 60% 0.0 mm CLR
10:15 16.4 °C 8.6 °C 1012.3 hPa West 7.6 km/h 5.6 km/h 60% 0.0 mm CLR
10:20 16.7 °C 8.7 °C 1012.3 hPa SW 5.0 km/h 7.4 km/h 59% 0.0 mm CLR
10:25 16.8 °C 8.7 °C 1012.3 hPa NW 5.0 km/h 11.1 km/h 59% 0.0 mm CLR
10:30 16.9 °C 8.6 °C 1012.3 hPa WNW 6.4 km/h 11.1 km/h 58% 0.0 mm CLR
10:35 16.9 °C 8.3 °C 1012.3 hPa WNW 6.4 km/h 13.0 km/h 57% 0.0 mm CLR
10:40 17.0 °C 7.9 °C 1012.3 hPa WSW 7.6 km/h 11.1 km/h 55% 0.0 mm CLR
10:45 17.2 °C 7.6 °C 1012.3 hPa NNW 7.6 km/h 9.3 km/h 53% 0.0 mm CLR
10:50 17.3 °C 7.9 °C 1012.3 hPa WNW 6.4 km/h 10.3 km/h 54% 0.0 mm CLR
10:55 17.4 °C 8.3 °C 1012.3 hPa West 6.4 km/h 7.4 km/h 55% 0.0 mm CLR
11:00 17.7 °C 8.3 °C 1012.3 hPa WNW 4.8 km/h 14.5 km/h 54% 0.0 mm CLR
11:05 17.8 °C 8.6 °C 1012.3 hPa NW 5.0 km/h 1.9 km/h 55% 0.0 mm CLR
11:10 18.2 °C 8.7 °C 1012.3 hPa SSW 3.9 km/h 7.4 km/h 54% 0.0 mm CLR
11:15 18.5 °C 8.4 °C 1012.3 hPa South 3.9 km/h 11.1 km/h 52% 0.0 mm CLR
11:20 18.4 °C 8.1 °C 1012.3 hPa SSW 6.4 km/h 13.7 km/h 51% 0.0 mm CLR
11:25 18.3 °C 8.0 °C 1012.3 hPa SE 6.4 km/h 11.1 km/h 51% 0.0 mm CLR
11:30 18.4 °C 7.8 °C 1012.3 hPa SW 7.6 km/h 7.6 km/h 50% 0.0 mm CLR
11:35 18.7 °C 7.2 °C 1012.3 hPa West 7.6 km/h 11.1 km/h 47% 0.0 mm CLR
11:40 18.7 °C 6.5 °C 1012.3 hPa WNW 5.8 km/h 14.8 km/h 45% 0.0 mm CLR
11:45 18.7 °C 6.5 °C 1012.3 hPa SSW 5.8 km/h 14.8 km/h 45% 0.0 mm CLR
11:50 18.9 °C 6.7 °C 1012.3 hPa NW 9.5 km/h 11.1 km/h 45% 0.0 mm CLR
11:55 18.9 °C 6.4 °C 1012.3 hPa West 9.5 km/h 13.0 km/h 44% 0.0 mm CLR
12:00 18.9 °C 6.4 °C 1012.3 hPa West 9.7 km/h 14.5 km/h 44% 0.0 mm CLR
12:05 19.2 °C 5.9 °C 1012.3 hPa SSW 9.5 km/h 7.4 km/h 42% 0.0 mm CLR
12:10 19.3 °C 6.1 °C 1012.3 hPa East 6.4 km/h 5.6 km/h 42% 0.0 mm CLR
12:15 19.8 °C 6.5 °C 1012.3 hPa NNW 6.4 km/h 5.6 km/h 42% 0.0 mm CLR
12:20 20.2 °C 6.5 °C 1012.2 hPa SSE 3.2 km/h 7.6 km/h 41% 0.0 mm CLR
12:25 20.4 °C 6.3 °C 1012.2 hPa SSW 3.2 km/h 7.4 km/h 40% 0.0 mm CLR
12:30 20.4 °C 6.0 °C 1012.2 hPa WNW 4.7 km/h 5.6 km/h 39% 0.0 mm CLR
12:35 20.3 °C 5.9 °C 1012.2 hPa WSW 4.7 km/h 9.5 km/h 39% 0.0 mm CLR
12:40 20.3 °C 5.9 °C 1012.2 hPa West 6.9 km/h 13.0 km/h 39% 0.0 mm CLR
12:45 20.2 °C 5.8 °C 1012.2 hPa West 6.9 km/h 11.1 km/h 39% 0.0 mm CLR
12:50 20.1 °C 5.7 °C 1012.1 hPa East 8.4 km/h 9.3 km/h 39% 0.0 mm CLR
12:55 20.2 °C 5.4 °C 1012.1 hPa West 8.4 km/h 13.0 km/h 38% 0.0 mm CLR
13:00 20.2 °C 5.4 °C 1012.1 hPa West 8.0 km/h 14.5 km/h 38% 0.0 mm CLR
13:05 20.4 °C 6.0 °C 1011.9 hPa WSW 6.4 km/h 18.5 km/h 39% 0.0 mm CLR
13:10 20.4 °C 5.6 °C 1011.9 hPa SW 9.5 km/h 16.7 km/h 38% 0.0 mm CLR
13:15 20.3 °C 5.9 °C 1011.9 hPa SW 9.5 km/h 7.4 km/h 39% 0.0 mm CLR
13:20 20.5 °C 5.7 °C 1011.7 hPa West 6.4 km/h 11.1 km/h 38% 0.0 mm CLR
13:25 20.6 °C 5.4 °C 1011.7 hPa SW 6.4 km/h 16.7 km/h 37% 0.0 mm CLR
13:30 20.8 °C 4.8 °C 1011.7 hPa West 7.6 km/h 11.1 km/h 35% 0.0 mm CLR
13:35 21.2 °C 4.7 °C 1011.5 hPa SW 7.6 km/h 9.3 km/h 34% 0.0 mm CLR
13:40 21.4 °C 4.4 °C 1011.5 hPa SSW 6.4 km/h 16.1 km/h 33% 0.0 mm CLR
13:45 21.3 °C 4.4 °C 1011.5 hPa West 6.4 km/h 11.1 km/h 33% 0.0 mm CLR
13:50 21.3 °C 4.8 °C 1011.4 hPa NE 7.6 km/h 20.4 km/h 34% 0.0 mm CLR
13:55 21.2 °C 4.7 °C 1011.4 hPa SW 7.6 km/h 18.0 km/h 34% 0.0 mm CLR
14:00 21.3 °C 3.4 °C 1011.4 hPa SSW 11.3 km/h 22.5 km/h 31% 0.0 mm CLR
14:05 21.5 °C 3.7 °C 1011.2 hPa North 10.3 km/h 11.1 km/h 31% 0.0 mm CLR
14:10 21.8 °C 3.9 °C 1011.2 hPa SSW 6.9 km/h 9.3 km/h 31% 0.0 mm CLR
14:15 22.0 °C 4.1 °C 1011.2 hPa NW 6.9 km/h 14.8 km/h 31% 0.0 mm CLR
14:20 21.9 °C 4.0 °C 1010.9 hPa WSW 9.5 km/h 16.7 km/h 31% 0.0 mm CLR
14:25 21.8 °C 3.9 °C 1010.9 hPa WNW 9.5 km/h 11.1 km/h 31% 0.0 mm CLR
14:30 22.1 °C 3.2 °C 1010.9 hPa NW 10.0 km/h 29.6 km/h 29% 0.0 mm CLR
14:35 22.2 °C 2.3 °C 1010.9 hPa NW 10.0 km/h 20.4 km/h 27% 0.0 mm CLR
14:40 22.3 °C 1.8 °C 1010.9 hPa NE 11.1 km/h 8.4 km/h 26% 0.0 mm CLR
14:45 22.7 °C 2.2 °C 1010.9 hPa WSW 11.1 km/h 9.3 km/h 26% 0.0 mm CLR
14:50 22.8 °C 2.3 °C 1010.7 hPa ENE 5.0 km/h 9.5 km/h 26% 0.0 mm CLR
14:55 23.1 °C 2.0 °C 1010.7 hPa NE 5.0 km/h 13.0 km/h 25% 0.0 mm CLR
15:00 23.2 °C 2.7 °C 1010.7 hPa NNW 8.0 km/h 20.9 km/h 26% 0.0 mm CLR
15:05 22.9 °C 2.9 °C 1010.6 hPa WNW 6.4 km/h 25.9 km/h 27% 0.0 mm CLR
15:10 22.8 °C 3.3 °C 1010.6 hPa SSW 12.2 km/h 16.7 km/h 28% 0.0 mm CLR
15:15 22.9 °C 3.4 °C 1010.6 hPa WSW 12.2 km/h 13.0 km/h 28% 0.0 mm CLR
15:20 23.3 °C 3.8 °C 1010.4 hPa SW 8.4 km/h 16.7 km/h 28% 0.0 mm CLR
15:25 23.3 °C 3.2 °C 1010.4 hPa SW 8.4 km/h 16.7 km/h 27% 0.0 mm CLR
15:30 23.1 °C 3.6 °C 1010.4 hPa SW 9.5 km/h 14.8 km/h 28% 0.0 mm CLR
15:35 23.3 °C 3.8 °C 1010.2 hPa East 9.5 km/h 7.4 km/h 28% 0.0 mm CLR
15:40 23.5 °C 3.9 °C 1010.2 hPa ENE 6.4 km/h 9.3 km/h 28% 0.0 mm CLR
15:45 23.8 °C 3.7 °C 1010.2 hPa North 6.4 km/h 7.4 km/h 27% 0.0 mm CLR
15:50 23.9 °C 3.8 °C 1010.0 hPa WNW 5.0 km/h 11.1 km/h 27% 0.0 mm CLR
15:55 23.8 °C 3.7 °C 1010.0 hPa WSW 5.0 km/h 11.1 km/h 27% 0.0 mm CLR
16:00 23.8 °C 3.1 °C 1010.0 hPa WNW 8.0 km/h 20.9 km/h 26% 0.0 mm CLR
16:05 24.1 °C 3.4 °C 1009.9 hPa NNW 8.4 km/h 10.3 km/h 26% 0.0 mm CLR
16:10 24.3 °C 3.6 °C 1009.9 hPa WSW 6.9 km/h 13.7 km/h 26% 0.0 mm CLR
16:15 24.4 °C 5.7 °C 1009.9 hPa East 6.9 km/h 9.3 km/h 30% 0.0 mm CLR
16:20 24.2 °C 8.6 °C 1009.6 hPa West 6.9 km/h 11.1 km/h 37% 0.0 mm CLR
16:25 24.2 °C 7.8 °C 1009.6 hPa SSE 6.9 km/h 23.3 km/h 35% 0.0 mm CLR
16:30 23.6 °C 8.8 °C 1009.6 hPa SSW 10.3 km/h 24.1 km/h 39% 0.0 mm CLR
16:35 23.6 °C 8.8 °C 1009.3 hPa SW 10.3 km/h 29.6 km/h 39% 0.0 mm CLR
16:40 23.0 °C 8.7 °C 1009.3 hPa South 16.1 km/h 25.9 km/h 40% 0.0 mm CLR
16:45 23.0 °C 9.4 °C 1009.3 hPa South 16.1 km/h 29.6 km/h 42% 0.0 mm CLR
16:50 23.3 °C 9.7 °C 1009.3 hPa SE 19.0 km/h 33.3 km/h 42% 0.0 mm CLR
16:55 22.9 °C 9.7 °C 1009.3 hPa SE 19.0 km/h 24.1 km/h 43% 0.0 mm CLR
17:00 22.9 °C 9.7 °C 1009.3 hPa SSE 19.3 km/h 24.1 km/h 43% 0.0 mm CLR
17:05 23.1 °C 10.2 °C 1009.3 hPa SE 18.0 km/h 27.8 km/h 44% 0.0 mm CLR
17:10 23.1 °C 10.2 °C 1009.3 hPa South 16.1 km/h 29.6 km/h 44% 0.0 mm CLR
17:15 22.9 °C 10.3 °C 1009.3 hPa SSE 16.1 km/h 27.8 km/h 45% 0.0 mm CLR
17:20 22.8 °C 10.2 °C 1009.4 hPa East 19.8 km/h 18.5 km/h 45% 0.0 mm CLR
17:25 22.7 °C 10.5 °C 1009.4 hPa SE 19.8 km/h 35.2 km/h 46% 0.0 mm CLR
17:30 22.4 °C 10.6 °C 1009.4 hPa SE 18.3 km/h 27.8 km/h 47% 0.0 mm CLR
17:35 22.1 °C 10.9 °C 1009.5 hPa SE 18.3 km/h 31.5 km/h 49% 0.0 mm CLR
17:40 22.0 °C 10.8 °C 1009.5 hPa SSE 20.1 km/h 22.2 km/h 49% 0.0 mm CLR
17:45 22.1 °C 10.9 °C 1009.5 hPa SE 20.1 km/h 35.2 km/h 49% 0.0 mm CLR
17:50 22.0 °C 10.8 °C 1009.5 hPa South 20.1 km/h 33.3 km/h 49% 0.0 mm CLR
17:55 21.9 °C 11.0 °C 1009.5 hPa ESE 20.1 km/h 31.5 km/h 50% 0.0 mm CLR
18:00 22.1 °C 10.9 °C 1009.5 hPa SSE 20.9 km/h 30.6 km/h 49% 0.0 mm CLR
18:05 22.3 °C 11.1 °C 1009.6 hPa SSE 19.8 km/h 31.5 km/h 49% 0.0 mm CLR
18:10 22.2 °C 11.0 °C 1009.6 hPa SE 18.0 km/h 37.0 km/h 49% 0.0 mm CLR
18:15 22.2 °C 11.3 °C 1009.6 hPa East 18.0 km/h 33.3 km/h 50% 0.0 mm CLR
18:20 22.2 °C 11.3 °C 1009.6 hPa SSW 19.8 km/h 29.6 km/h 50% 0.0 mm CLR
18:25 22.0 °C 11.4 °C 1009.6 hPa SSE 19.8 km/h 24.1 km/h 51% 0.0 mm CLR
18:30 21.8 °C 11.2 °C 1009.6 hPa South 20.1 km/h 20.4 km/h 51% 0.0 mm CLR
18:35 21.7 °C 11.4 °C 1009.7 hPa South 20.1 km/h 31.5 km/h 52% 0.0 mm CLR
18:40 21.4 °C 11.7 °C 1009.7 hPa SSE 20.9 km/h 22.2 km/h 54% 0.0 mm CLR
18:45 21.6 °C 11.6 °C 1009.7 hPa SSE 20.9 km/h 24.1 km/h 53% 0.0 mm CLR
18:50 21.6 °C 11.9 °C 1009.6 hPa SSE 18.0 km/h 24.5 km/h 54% 0.0 mm CLR
18:55 21.4 °C 12.0 °C 1009.6 hPa SE 18.0 km/h 27.8 km/h 55% 0.0 mm CLR
19:00 21.4 °C 12.0 °C 1009.6 hPa SE 16.1 km/h 25.7 km/h 55% 0.0 mm CLR
19:05 21.5 °C 12.1 °C 1009.7 hPa SE 17.2 km/h 22.2 km/h 55% 0.0 mm CLR
19:10 21.5 °C 12.1 °C 1009.7 hPa SSE 14.0 km/h 24.1 km/h 55% 0.0 mm CLR
19:15 21.3 °C 12.2 °C 1009.7 hPa South 14.0 km/h 26.2 km/h 56% 0.0 mm CLR
19:20 21.1 °C 12.2 °C 1009.8 hPa SSE 16.4 km/h 25.9 km/h 57% 0.0 mm CLR
19:25 20.7 °C 12.4 °C 1009.8 hPa SE 16.4 km/h 24.1 km/h 59% 0.0 mm CLR
19:30 20.7 °C 12.4 °C 1009.8 hPa South 18.0 km/h 24.1 km/h 59% 0.0 mm CLR
19:35 20.8 °C 12.2 °C 1009.8 hPa South 18.0 km/h 22.2 km/h 58% 0.0 mm CLR
19:40 20.7 °C 12.4 °C 1009.8 hPa SSE 16.4 km/h 16.7 km/h 59% 0.0 mm CLR
19:45 20.8 °C 12.5 °C 1009.8 hPa South 16.4 km/h 25.9 km/h 59% 0.0 mm CLR
19:50 20.4 °C 12.4 °C 1010.0 hPa SSW 14.8 km/h 22.2 km/h 60% 0.0 mm CLR
19:55 20.4 °C 12.4 °C 1010.0 hPa SSE 14.8 km/h 20.9 km/h 60% 0.0 mm CLR
20:00 20.3 °C 12.6 °C 1010.0 hPa SSE 14.5 km/h 22.5 km/h 61% 0.0 mm CLR
20:05 20.3 °C 12.6 °C 1010.1 hPa SSE 14.0 km/h 22.2 km/h 61% 0.0 mm CLR
20:10 20.2 °C 12.4 °C 1010.1 hPa South 13.0 km/h 18.5 km/h 61% 0.0 mm CLR
20:15 20.2 °C 12.4 °C 1010.1 hPa ESE 13.0 km/h 14.8 km/h 61% 0.0 mm CLR
20:20 20.2 °C 12.4 °C 1010.2 hPa SSE 11.9 km/h 16.7 km/h 61% 0.0 mm CLR
20:25 19.9 °C 12.4 °C 1010.2 hPa SSE 11.9 km/h 13.0 km/h 62% 0.0 mm CLR
20:30 19.9 °C 12.4 °C 1010.2 hPa SE 11.1 km/h 23.3 km/h 62% 0.0 mm CLR
20:35 19.7 °C 12.4 °C 1010.4 hPa SSW 11.1 km/h 24.1 km/h 63% 0.0 mm CLR
20:40 19.6 °C 12.6 °C 1010.4 hPa South 13.0 km/h 18.5 km/h 64% 0.0 mm CLR
20:45 19.4 °C 12.4 °C 1010.4 hPa South 13.0 km/h 13.0 km/h 64% 0.0 mm CLR
20:50 19.4 °C 12.7 °C 1010.5 hPa SSE 10.3 km/h 9.3 km/h 65% 0.0 mm CLR
20:55 19.4 °C 12.7 °C 1010.5 hPa SE 10.3 km/h 11.1 km/h 65% 0.0 mm CLR
21:00 19.4 °C 12.7 °C 1010.5 hPa SE 8.0 km/h 14.5 km/h 65% 0.0 mm CLR
21:05 19.3 °C 12.6 °C 1010.7 hPa ESE 6.9 km/h 8.4 km/h 65% 0.0 mm CLR
21:10 19.1 °C 12.6 °C 1010.7 hPa East 6.4 km/h 9.3 km/h 66% 0.0 mm CLR
21:15 18.8 °C 12.6 °C 1010.7 hPa East 6.4 km/h 11.1 km/h 67% 0.0 mm CLR
21:20 18.7 °C 12.7 °C 1010.8 hPa ESE 6.9 km/h 7.4 km/h 68% 0.0 mm CLR
21:25 18.6 °C 12.8 °C 1010.8 hPa ESE 6.9 km/h 11.1 km/h 69% 0.0 mm CLR
21:30 18.4 °C 12.8 °C 1010.8 hPa ESE 6.4 km/h 9.3 km/h 70% 0.0 mm CLR
21:35 18.3 °C 12.7 °C 1010.9 hPa East 6.4 km/h 9.3 km/h 70% 0.0 mm CLR
21:40 18.3 °C 12.7 °C 1010.9 hPa ESE 6.4 km/h 9.3 km/h 70% 0.0 mm CLR
21:45 18.2 °C 12.8 °C 1010.9 hPa East 6.4 km/h 9.3 km/h 71% 0.0 mm CLR
21:50 18.1 °C 12.9 °C 1011.1 hPa ESE 6.4 km/h 10.0 km/h 72% 0.0 mm CLR
21:55 18.0 °C 12.9 °C 1011.1 hPa East 6.4 km/h 9.3 km/h 72% 0.0 mm CLR
22:00 17.9 °C 12.8 °C 1011.1 hPa ESE 8.0 km/h 11.3 km/h 72% 0.0 mm CLR
22:05 17.8 °C 12.9 °C 1011.2 hPa ESE 6.9 km/h 10.3 km/h 73% 0.0 mm CLR
22:10 17.7 °C 13.0 °C 1011.2 hPa ESE 8.4 km/h 14.8 km/h 74% 0.0 mm CLR
22:15 17.6 °C 12.9 °C 1011.2 hPa ESE 8.4 km/h 11.1 km/h 74% 0.0 mm CLR
22:20 17.6 °C 12.9 °C 1011.4 hPa ESE 8.7 km/h 11.1 km/h 74% 0.0 mm CLR
22:25 17.4 °C 12.9 °C 1011.4 hPa ESE 8.7 km/h 9.3 km/h 75% 0.0 mm CLR
22:30 17.4 °C 12.9 °C 1011.4 hPa ESE 8.4 km/h 11.1 km/h 75% 0.0 mm CLR
22:35 17.3 °C 12.8 °C 1011.5 hPa East 8.4 km/h 11.1 km/h 75% 0.0 mm CLR
22:40 17.3 °C 12.8 °C 1011.5 hPa ESE 6.9 km/h 11.1 km/h 75% 0.0 mm CLR
22:45 17.2 °C 12.9 °C 1011.5 hPa East 6.9 km/h 13.0 km/h 76% 0.0 mm CLR
22:50 17.2 °C 12.9 °C 1011.5 hPa East 7.6 km/h 9.3 km/h 76% 0.0 mm CLR
22:55 17.1 °C 12.8 °C 1011.5 hPa ESE 7.6 km/h 7.6 km/h 76% 0.0 mm CLR
23:00 17.1 °C 12.8 °C 1011.5 hPa ESE 8.0 km/h 12.9 km/h 76% 0.0 mm CLR
23:05 17.0 °C 12.9 °C 1011.4 hPa ESE 6.4 km/h 11.1 km/h 77% 0.0 mm CLR
23:10 17.0 °C 12.9 °C 1011.4 hPa SE 6.4 km/h 7.4 km/h 77% 0.0 mm CLR
23:15 17.1 °C 13.1 °C 1011.4 hPa SE 6.4 km/h 9.3 km/h 77% 0.0 mm CLR
23:20 17.0 °C 12.9 °C 1011.4 hPa East 5.0 km/h 9.3 km/h 77% 0.0 mm CLR
23:25 17.0 °C 12.9 °C 1011.4 hPa SE 5.0 km/h 7.4 km/h 77% 0.0 mm CLR
23:30 17.1 °C 13.1 °C 1011.4 hPa East 5.0 km/h 7.4 km/h 77% 0.0 mm CLR
23:35 17.0 °C 12.9 °C 1011.4 hPa East 5.0 km/h 4.7 km/h 77% 0.0 mm CLR
23:40 16.9 °C 12.8 °C 1011.4 hPa East 3.2 km/h 3.7 km/h 77% 0.0 mm CLR
23:45 16.9 °C 13.1 °C 1011.4 hPa ESE 3.2 km/h 3.7 km/h 78% 0.0 mm CLR
23:50 16.9 °C 13.1 °C 1011.3 hPa ESE 2.9 km/h 7.6 km/h 78% 0.0 mm CLR
23:55 16.8 °C 12.9 °C 1011.3 hPa NE 2.9 km/h 3.7 km/h 78% 0.0 mm CLR
Murcia-Puente Tocinos, España
Compliments of Weather Underground - 2.75 mb

La estación de MeteoMurcia.com, publica sus datos en los siguientes proyectos:

Weather Underground PWS IMURCIAP2 Meteoclimatic www.awekas.at

W3Counter
Web Analytics